Terminal Aerodrome Forecast
Issued by NWS Blacksburg, VA

Current Version | Previous Version | Text Only | Print | Product List | Glossary Off
Versions: 1 2 3 4 5 6 7 8 9 10 11 12 13 14 15 16 17 18 19 20 21 22 23 24 25 26 27 28 29 30 31 32 33 34 35 36 37 38 39

000
FTUS41 KRNK 191127
TAFBLF
TAF
KBLF 191127Z 1912/2012 29006KT P6SM BKN010
      TEMPO 1912/1915 SCT015 OVC040
     FM191700 31005KT P6SM SCT025
     FM201000 12004KT 5SM BR BKN010 OVC060=

USA.gov is the U.S. government's official web portal to all federal, state and local government web resources and services.